^^
Saratoga-Weather Station Historical Data
Daily Summary for July 1, 2020 Units:  Both    English   Metric
Daily Weekly Monthly Yearly Custom
  High: Low: Average:
Temperature: 39 °F /  3.9 °C 33.3 °F /  0.7 °C 35.4 °F /  1.9 °C
Dew Point: 37.8 °F /  3.2 °C 31.5 °F /  -0.3 °C 34 °F /  1.1 °C
Humidity: 96% 93% 95%
Wind Speed: 12.1mph /  19.5km/h - 3.7mph /  5.9km/h
Wind Gust: 16mph /  25.7km/h - -
Wind- - West
Pressure: 30.1 in /  1019.6 hPa 30 in /  1014.9 hPa -
Precipitation: 0.02 in /  0.5 mm    
Historical Graphs
 
 
Tabular Data for July 1, 2020
Time Temperature Dew Point Pressure Wind Wind Speed Wind Gust Humidity Rainfall Rate (Hourly) solar
00:01 33.3 °F /  0.7 °C 31.5 °F /  -0.3 °C 30.1in /  1019.6hPa North 0.9mph /  1.4km/h 2mph /  3.2km/h 93% 0in /  0.0mm 0 W/m2
00:06 33.3 °F /  0.7 °C 31.5 °F /  -0.3 °C 30.1in /  1019.6hPa Calm   1mph /  1.6km/h 93% 0in /  0.0mm 0 W/m2
00:11 33.3 °F /  0.7 °C 31.5 °F /  -0.3 °C 30.1in /  1019.3hPa ESE 2mph /  3.2km/h 3mph /  4.8km/h 93% 0in /  0.0mm 0 W/m2
00:16 33.3 °F /  0.7 °C 31.5 °F /  -0.3 °C 30.1in /  1019.3hPa Calm   2mph /  3.2km/h 93% 0in /  0.0mm 0 W/m2
00:21 33.3 °F /  0.7 °C 31.5 °F /  -0.3 °C 30.1in /  1019.0hPa NNE 2mph /  3.2km/h 2mph /  3.2km/h 93% 0in /  0.0mm 0 W/m2
00:26 33.3 °F /  0.7 °C 31.5 °F /  -0.3 °C 30.1in /  1019.0hPa NNE 0.9mph /  1.4km/h 1mph /  1.6km/h 93% 0in /  0.0mm 0 W/m2
00:31 33.3 °F /  0.7 °C 31.5 °F /  -0.3 °C 30.1in /  1019.0hPa Calm   2mph /  3.2km/h 93% 0in /  0.0mm 0 W/m2
00:36 33.4 °F /  0.8 °C 31.6 °F /  -0.2 °C 30.1in /  1018.6hPa North 0.9mph /  1.4km/h 2mph /  3.2km/h 93% 0in /  0.0mm 0 W/m2
00:41 33.4 °F /  0.8 °C 31.6 °F /  -0.2 °C 30.1in /  1018.6hPa Calm   1mph /  1.6km/h 93% 0in /  0.0mm 0 W/m2
00:46 33.4 °F /  0.8 °C 31.6 °F /  -0.2 °C 30.1in /  1018.6hPa Calm   1mph /  1.6km/h 93% 0in /  0.0mm 0 W/m2
00:51 33.4 °F /  0.8 °C 31.6 °F /  -0.2 °C 30.1in /  1018.6hPa NNE 0.9mph /  1.4km/h 3mph /  4.8km/h 93% 0in /  0.0mm 0 W/m2
00:56 33.6 °F /  0.9 °C 31.8 °F /  -0.1 °C 30.1in /  1018.3hPa NE 0.9mph /  1.4km/h 2mph /  3.2km/h 93% 0in /  0.0mm 0 W/m2
01:01 33.6 °F /  0.9 °C 32 °F /  0 °C 30.1in /  1018.3hPa North 0.9mph /  1.4km/h 3mph /  4.8km/h 94% 0in /  0.0mm 0 W/m2
01:06 33.6 °F /  0.9 °C 32 °F /  0 °C 30.1in /  1018.6hPa Calm   2mph /  3.2km/h 94% 0in /  0.0mm 0 W/m2
01:11 33.6 °F /  0.9 °C 32 °F /  0 °C 30.1in /  1018.3hPa Calm     94% 0in /  0.0mm 0 W/m2
01:16 33.6 °F /  0.9 °C 32 °F /  0 °C 30.1in /  1018.3hPa West 0.9mph /  1.4km/h 5mph /  8km/h 94% 0in /  0.0mm 0 W/m2
01:21 33.6 °F /  0.9 °C 32 °F /  0 °C 30.1in /  1018.3hPa NW 0.9mph /  1.4km/h 2mph /  3.2km/h 94% 0in /  0.0mm 0 W/m2
01:26 33.8 °F /  1 °C 32.2 °F /  0.1 °C 30.1in /  1018.0hPa Calm   3mph /  4.8km/h 94% 0in /  0.0mm 0 W/m2
01:31 33.8 °F /  1 °C 32.2 °F /  0.1 °C 30.1in /  1018.0hPa NNW 0.9mph /  1.4km/h 4mph /  6.4km/h 94% 0in /  0.0mm 0 W/m2
01:36 34 °F /  1.1 °C 32.4 °F /  0.2 °C 30.1in /  1018.0hPa West 0.9mph /  1.4km/h 2mph /  3.2km/h 94% 0in /  0.0mm 0 W/m2
01:41 34 °F /  1.1 °C 32.4 °F /  0.2 °C 30.1in /  1018.0hPa NW 2mph /  3.2km/h 5mph /  8km/h 94% 0in /  0.0mm 0 W/m2
01:46 34 °F /  1.1 °C 32.4 °F /  0.2 °C 30.1in /  1017.6hPa WNW 2mph /  3.2km/h 2mph /  3.2km/h 94% 0in /  0.0mm 0 W/m2
01:51 34.2 °F /  1.2 °C 32.5 °F /  0.3 °C 30.1in /  1017.6hPa NNW 2mph /  3.2km/h 2mph /  3.2km/h 94% 0in /  0.0mm 0 W/m2
01:56 34.2 °F /  1.2 °C 32.5 °F /  0.3 °C 30in /  1017.3hPa NW 2mph /  3.2km/h 4mph /  6.4km/h 94% 0in /  0.0mm 0 W/m2
02:01 34.2 °F /  1.2 °C 32.5 °F /  0.3 °C 30in /  1017.3hPa North 2.9mph /  4.7km/h 3mph /  4.8km/h 94% 0in /  0.0mm 0 W/m2
02:06 34.2 °F /  1.2 °C 32.5 °F /  0.3 °C 30in /  1017.3hPa NW 0.9mph /  1.4km/h 2mph /  3.2km/h 94% 0in /  0.0mm 0 W/m2
02:11 34.3 °F /  1.3 °C 32.7 °F /  0.4 °C 30in /  1017.3hPa WNW 0.9mph /  1.4km/h 5mph /  8km/h 94% 0in /  0.0mm 0 W/m2
02:16 34.3 °F /  1.3 °C 32.7 °F /  0.4 °C 30in /  1016.9hPa North 2mph /  3.2km/h 3mph /  4.8km/h 94% 0in /  0.0mm 0 W/m2
02:21 34.3 °F /  1.3 °C 32.7 °F /  0.4 °C 30in /  1016.9hPa NNW 2mph /  3.2km/h 3mph /  4.8km/h 94% 0in /  0.0mm 0 W/m2
02:26 34.3 °F /  1.3 °C 32.7 °F /  0.4 °C 30in /  1016.9hPa North 0.9mph /  1.4km/h 4mph /  6.4km/h 94% 0in /  0.0mm 0 W/m2
02:32 34.3 °F /  1.3 °C 32.7 °F /  0.4 °C 30in /  1016.9hPa SSW 2mph /  3.2km/h 7mph /  11.3km/h 94% 0in /  0.0mm 0 W/m2
02:37 34.3 °F /  1.3 °C 32.7 °F /  0.4 °C 30in /  1016.9hPa Calm   2mph /  3.2km/h 94% 0in /  0.0mm 0 W/m2
02:42 34.3 °F /  1.3 °C 32.7 °F /  0.4 °C 30in /  1016.9hPa NNW 0.9mph /  1.4km/h 4mph /  6.4km/h 94% 0in /  0.0mm 0 W/m2
02:47 34.3 °F /  1.3 °C 32.7 °F /  0.4 °C 30in /  1016.9hPa Calm   3mph /  4.8km/h 94% 0in /  0.0mm 0 W/m2
02:52 34.3 °F /  1.3 °C 32.7 °F /  0.4 °C 30in /  1016.6hPa WSW 0.9mph /  1.4km/h 4mph /  6.4km/h 94% 0in /  0.0mm 0 W/m2
02:57 34.3 °F /  1.3 °C 32.7 °F /  0.4 °C 30in /  1016.6hPa Calm   2mph /  3.2km/h 94% 0in /  0.0mm 0 W/m2
03:02 34.3 °F /  1.3 °C 32.7 °F /  0.4 °C 30in /  1016.6hPa NE 0.9mph /  1.4km/h 2mph /  3.2km/h 94% 0in /  0.0mm 0 W/m2
03:07 34.3 °F /  1.3 °C 32.7 °F /  0.4 °C 30in /  1016.6hPa WNW 0.9mph /  1.4km/h 3mph /  4.8km/h 94% 0in /  0.0mm 0 W/m2
03:12 34.3 °F /  1.3 °C 32.7 °F /  0.4 °C 30in /  1016.6hPa Calm   3mph /  4.8km/h 94% 0in /  0.0mm 0 W/m2
03:17 34.5 °F /  1.4 °C 32.9 °F /  0.5 °C 30in /  1016.6hPa Calm   2mph /  3.2km/h 94% 0in /  0.0mm 0 W/m2
03:22 34.5 °F /  1.4 °C 32.9 °F /  0.5 °C 30in /  1016.6hPa West 2mph /  3.2km/h 4mph /  6.4km/h 94% 0in /  0.0mm 0 W/m2
03:27 34.5 °F /  1.4 °C 32.9 °F /  0.5 °C 30in /  1016.6hPa WNW 0.9mph /  1.4km/h 3mph /  4.8km/h 94% 0in /  0.0mm 0 W/m2
03:32 34.5 °F /  1.4 °C 32.9 °F /  0.5 °C 30in /  1016.3hPa NNW 0.9mph /  1.4km/h 2mph /  3.2km/h 94% 0in /  0.0mm 0 W/m2
03:37 34.5 °F /  1.4 °C 32.9 °F /  0.5 °C 30in /  1016.3hPa West 0.9mph /  1.4km/h 2mph /  3.2km/h 94% 0in /  0.0mm 0 W/m2
03:42 34.5 °F /  1.4 °C 33.3 °F /  0.7 °C 30in /  1016.3hPa Calm   10mph /  16.1km/h 95% 0in /  0.0mm 0 W/m2
03:47 34.5 °F /  1.4 °C 33.3 °F /  0.7 °C 30in /  1016.3hPa West 2.9mph /  4.7km/h 4mph /  6.4km/h 95% 0in /  0.0mm 0 W/m2
03:52 34.5 °F /  1.4 °C 33.3 °F /  0.7 °C 30in /  1016.3hPa WNW 4mph /  6.4km/h 8mph /  12.9km/h 95% 0in /  0.0mm 0 W/m2
03:57 34.5 °F /  1.4 °C 33.3 °F /  0.7 °C 30in /  1015.9hPa WNW 4mph /  6.4km/h 4mph /  6.4km/h 95% 0in /  0.0mm 0 W/m2
04:02 34.7 °F /  1.5 °C 33.4 °F /  0.8 °C 30in /  1015.9hPa NNW 4.9mph /  7.9km/h 8mph /  12.9km/h 95% 0in /  0.0mm 0 W/m2
04:07 34.7 °F /  1.5 °C 33.4 °F /  0.8 °C 30in /  1015.9hPa West 4mph /  6.4km/h 8mph /  12.9km/h 95% 0in /  0.0mm 0 W/m2
04:12 34.7 °F /  1.5 °C 33.4 °F /  0.8 °C 30in /  1015.9hPa West 2.9mph /  4.7km/h 7mph /  11.3km/h 95% 0in /  0.0mm 0 W/m2
04:17 34.9 °F /  1.6 °C 33.6 °F /  0.9 °C 30in /  1015.6hPa West 11mph /  17.7km/h 11mph /  17.7km/h 95% 0in /  0.0mm 0 W/m2
04:22 34.9 °F /  1.6 °C 33.6 °F /  0.9 °C 30in /  1015.6hPa West 6mph /  9.7km/h 11mph /  17.7km/h 95% 0in /  0.0mm 0 W/m2
04:27 34.9 °F /  1.6 °C 33.6 °F /  0.9 °C 30in /  1015.2hPa WSW 2mph /  3.2km/h 15mph /  24.1km/h 95% 0in /  0.0mm 0 W/m2
04:32 34.9 °F /  1.6 °C 33.6 °F /  0.9 °C 30in /  1015.6hPa West 6.9mph /  11.1km/h 12mph /  19.3km/h 95% 0in /  0.0mm 0 W/m2
04:37 34.9 °F /  1.6 °C 33.6 °F /  0.9 °C 30in /  1015.6hPa West 8.1mph /  13km/h 15mph /  24.1km/h 95% 0in /  0.0mm 0 W/m2
04:42 34.9 °F /  1.6 °C 33.6 °F /  0.9 °C 30in /  1015.6hPa NW 8.9mph /  14.3km/h 9mph /  14.5km/h 95% 0in /  0.0mm 0 W/m2
04:47 34.9 °F /  1.6 °C 33.6 °F /  0.9 °C 30in /  1015.6hPa WNW 4mph /  6.4km/h 6mph /  9.7km/h 95% 0in /  0.0mm 0 W/m2
04:52 35.1 °F /  1.7 °C 33.8 °F /  1 °C 30in /  1015.6hPa NW 2mph /  3.2km/h 4mph /  6.4km/h 95% 0in /  0.0mm 0 W/m2
04:57 35.1 °F /  1.7 °C 33.8 °F /  1 °C 30in /  1015.6hPa WNW 0.9mph /  1.4km/h 7mph /  11.3km/h 95% 0in /  0.0mm 0 W/m2
05:02 35.1 °F /  1.7 °C 33.8 °F /  1 °C 30in /  1015.6hPa WNW 2.9mph /  4.7km/h 8mph /  12.9km/h 95% 0in /  0.0mm 0 W/m2
05:07 35.1 °F /  1.7 °C 33.8 °F /  1 °C 30in /  1015.6hPa NW 2.9mph /  4.7km/h 8mph /  12.9km/h 95% 0in /  0.0mm 0 W/m2
05:12 35.1 °F /  1.7 °C 33.8 °F /  1 °C 30in /  1015.6hPa Calm   3mph /  4.8km/h 95% 0in /  0.0mm 0 W/m2
05:17 35.1 °F /  1.7 °C 33.8 °F /  1 °C 30in /  1015.2hPa NW 0.9mph /  1.4km/h 8mph /  12.9km/h 95% 0in /  0.0mm 0 W/m2
05:22 35.1 °F /  1.7 °C 33.8 °F /  1 °C 30in /  1015.2hPa WSW 4mph /  6.4km/h 10mph /  16.1km/h 95% 0.02in /  0.5mm 0 W/m2
05:27 35.1 °F /  1.7 °C 33.8 °F /  1 °C 30in /  1015.2hPa NW 2.9mph /  4.7km/h 7mph /  11.3km/h 95% 0.02in /  0.5mm 0 W/m2
05:32 35.1 °F /  1.7 °C 33.8 °F /  1 °C 30in /  1015.2hPa Calm   10mph /  16.1km/h 95% 0.02in /  0.5mm 0 W/m2
05:37 35.1 °F /  1.7 °C 33.8 °F /  1 °C 30in /  1015.2hPa WNW 2.9mph /  4.7km/h 6mph /  9.7km/h 95% 0.02in /  0.5mm 0 W/m2
05:42 35.1 °F /  1.7 °C 33.8 °F /  1 °C 30in /  1015.2hPa WNW 4mph /  6.4km/h 9mph /  14.5km/h 95% 0.02in /  0.5mm 0 W/m2
05:47 35.2 °F /  1.8 °C 34 °F /  1.1 °C 30in /  1015.2hPa WNW 2mph /  3.2km/h 10mph /  16.1km/h 95% 0.02in /  0.5mm 0 W/m2
05:52 35.2 °F /  1.8 °C 34 °F /  1.1 °C 30in /  1015.2hPa West 6mph /  9.7km/h 8mph /  12.9km/h 95% 0.02in /  0.5mm 0 W/m2
05:57 35.2 °F /  1.8 °C 34 °F /  1.1 °C 30in /  1015.2hPa WNW 4mph /  6.4km/h 12mph /  19.3km/h 95% 0.02in /  0.5mm 0 W/m2
06:02 35.4 °F /  1.9 °C 34.3 °F /  1.3 °C 30in /  1014.9hPa NW 8.1mph /  13km/h 11mph /  17.7km/h 96% 0.02in /  0.5mm 0 W/m2
06:07 35.6 °F /  2 °C 34.5 °F /  1.4 °C 30in /  1015.2hPa WSW 6mph /  9.7km/h 10mph /  16.1km/h 96% 0.02in /  0.5mm 0 W/m2
06:12 35.8 °F /  2.1 °C 34.7 °F /  1.5 °C 30in /  1015.2hPa NW 2mph /  3.2km/h 9mph /  14.5km/h 96% 0.02in /  0.5mm 0 W/m2
06:17 35.8 °F /  2.1 °C 34.7 °F /  1.5 °C 30in /  1015.2hPa WSW 4.9mph /  7.9km/h 15mph /  24.1km/h 96% 0.02in /  0.5mm 0 W/m2
06:22 35.8 °F /  2.1 °C 34.7 °F /  1.5 °C 30in /  1015.2hPa West 8.1mph /  13km/h 10mph /  16.1km/h 96% 0in /  0.0mm 0 W/m2
06:27 35.8 °F /  2.1 °C 34.7 °F /  1.5 °C 30in /  1015.2hPa WNW 8.1mph /  13km/h 15mph /  24.1km/h 96% 0in /  0.0mm 0 W/m2
06:32 36 °F /  2.2 °C 34.9 °F /  1.6 °C 30in /  1015.2hPa WSW 4mph /  6.4km/h 10mph /  16.1km/h 96% 0in /  0.0mm 0 W/m2
06:37 36 °F /  2.2 °C 34.9 °F /  1.6 °C 30in /  1015.2hPa West 2mph /  3.2km/h 11mph /  17.7km/h 96% 0in /  0.0mm 0 W/m2
06:42 36.1 °F /  2.3 °C 35.1 °F /  1.7 °C 30in /  1014.9hPa West 6mph /  9.7km/h 8mph /  12.9km/h 96% 0in /  0.0mm 0 W/m2
06:47 36.1 °F /  2.3 °C 35.1 °F /  1.7 °C 30in /  1014.9hPa WNW 4.9mph /  7.9km/h 7mph /  11.3km/h 96% 0in /  0.0mm 0 W/m2
06:52 36.1 °F /  2.3 °C 35.1 °F /  1.7 °C 30in /  1014.9hPa South 6.9mph /  11.1km/h 10mph /  16.1km/h 96% 0in /  0.0mm 0 W/m2
06:57 36.3 °F /  2.4 °C 35.2 °F /  1.8 °C 30in /  1015.2hPa NNW 2mph /  3.2km/h 11mph /  17.7km/h 96% 0in /  0.0mm 0 W/m2
07:02 36.5 °F /  2.5 °C 35.4 °F /  1.9 °C 30in /  1015.2hPa WNW 2mph /  3.2km/h 11mph /  17.7km/h 96% 0in /  0.0mm 0 W/m2
07:07 36.3 °F /  2.4 °C 35.2 °F /  1.8 °C 30in /  1015.2hPa NW 2.9mph /  4.7km/h 8mph /  12.9km/h 96% 0in /  0.0mm 0 W/m2
07:12 36.3 °F /  2.4 °C 35.2 °F /  1.8 °C 30in /  1015.2hPa WSW 6.9mph /  11.1km/h 9mph /  14.5km/h 96% 0in /  0.0mm 0 W/m2
07:17 36.3 °F /  2.4 °C 35.2 °F /  1.8 °C 30in /  1015.2hPa West 4mph /  6.4km/h 8mph /  12.9km/h 96% 0in /  0.0mm 0 W/m2
07:22 36.3 °F /  2.4 °C 35.2 °F /  1.8 °C 30in /  1015.2hPa SW 6.9mph /  11.1km/h 10mph /  16.1km/h 96% 0in /  0.0mm 0 W/m2
07:27 36.3 °F /  2.4 °C 35.2 °F /  1.8 °C 30in /  1015.2hPa WNW 6.9mph /  11.1km/h 8mph /  12.9km/h 96% 0in /  0.0mm 0 W/m2
07:32 36.3 °F /  2.4 °C 35.2 °F /  1.8 °C 30in /  1015.2hPa WNW 10.1mph /  16.3km/h 11mph /  17.7km/h 96% 0in /  0.0mm 0 W/m2
07:37 36.5 °F /  2.5 °C 35.4 °F /  1.9 °C 30in /  1015.2hPa WNW 8.9mph /  14.3km/h 10mph /  16.1km/h 96% 0in /  0.0mm 0 W/m2
07:42 36.7 °F /  2.6 °C 35.6 °F /  2 °C 30in /  1015.2hPa NNW 8.1mph /  13km/h 12mph /  19.3km/h 96% 0in /  0.0mm 0 W/m2
07:47 36.7 °F /  2.6 °C 35.6 °F /  2 °C 30in /  1015.2hPa NW 4.9mph /  7.9km/h 8mph /  12.9km/h 96% 0in /  0.0mm 0 W/m2
07:52 36.7 °F /  2.6 °C 35.6 °F /  2 °C 30in /  1015.2hPa WNW 4mph /  6.4km/h 7mph /  11.3km/h 96% 0in /  0.0mm 0 W/m2
07:57 36.9 °F /  2.7 °C 35.6 °F /  2 °C 30in /  1015.2hPa West 4mph /  6.4km/h 7mph /  11.3km/h 95% 0in /  0.0mm 0 W/m2
08:02 36.9 °F /  2.7 °C 35.6 °F /  2 °C 30in /  1014.9hPa WSW 8.1mph /  13km/h 13mph /  20.9km/h 95% 0in /  0.0mm 0 W/m2
08:07 37 °F /  2.8 °C 35.8 °F /  2.1 °C 30in /  1015.2hPa West 8.1mph /  13km/h 13mph /  20.9km/h 95% 0in /  0.0mm 0 W/m2
08:12 37 °F /  2.8 °C 36 °F /  2.2 °C 30in /  1014.9hPa West 4mph /  6.4km/h 7mph /  11.3km/h 96% 0in /  0.0mm 5 W/m2
08:17 37 °F /  2.8 °C 36 °F /  2.2 °C 30in /  1015.2hPa NW 4mph /  6.4km/h 9mph /  14.5km/h 96% 0in /  0.0mm 7 W/m2
08:22 37.2 °F /  2.9 °C 36.1 °F /  2.3 °C 30in /  1015.2hPa WSW 10.1mph /  16.3km/h 10mph /  16.1km/h 96% 0in /  0.0mm 11 W/m2
08:27 37.4 °F /  3 °C 36.3 °F /  2.4 °C 30in /  1015.2hPa West 6mph /  9.7km/h 8mph /  12.9km/h 96% 0in /  0.0mm 16 W/m2
08:32 37.6 °F /  3.1 °C 36.5 °F /  2.5 °C 30in /  1015.2hPa WNW 12.1mph /  19.5km/h 12mph /  19.3km/h 96% 0in /  0.0mm 16 W/m2
08:37 37.8 °F /  3.2 °C 36.7 °F /  2.6 °C 30in /  1015.2hPa WNW 8.1mph /  13km/h 10mph /  16.1km/h 96% 0in /  0.0mm 12 W/m2
08:42 37.8 °F /  3.2 °C 36.7 °F /  2.6 °C 30in /  1015.2hPa WNW 8.1mph /  13km/h 10mph /  16.1km/h 96% 0in /  0.0mm 14 W/m2
08:47 37.9 °F /  3.3 °C 36.7 °F /  2.6 °C 30in /  1015.2hPa WNW 6.9mph /  11.1km/h 11mph /  17.7km/h 95% 0in /  0.0mm 23 W/m2
08:52 38.1 °F /  3.4 °C 36.9 °F /  2.7 °C 30in /  1015.2hPa West 4mph /  6.4km/h 7mph /  11.3km/h 95% 0in /  0.0mm 25 W/m2
08:57 38.1 °F /  3.4 °C 36.9 °F /  2.7 °C 30in /  1015.2hPa WNW 12.1mph /  19.5km/h 12mph /  19.3km/h 95% 0in /  0.0mm 25 W/m2
09:02 38.1 °F /  3.4 °C 36.9 °F /  2.7 °C 30in /  1015.2hPa West 2.9mph /  4.7km/h 10mph /  16.1km/h 95% 0in /  0.0mm 23 W/m2
09:07 38.1 °F /  3.4 °C 36.9 °F /  2.7 °C 30in /  1015.2hPa WNW 0.9mph /  1.4km/h 12mph /  19.3km/h 95% 0in /  0.0mm 25 W/m2
09:12 38.3 °F /  3.5 °C 37 °F /  2.8 °C 30in /  1015.2hPa West 6mph /  9.7km/h 10mph /  16.1km/h 95% 0in /  0.0mm 21 W/m2
09:17 38.5 °F /  3.6 °C 37.2 °F /  2.9 °C 30in /  1015.2hPa WSW 6.9mph /  11.1km/h 11mph /  17.7km/h 95% 0in /  0.0mm 30 W/m2
09:22 38.7 °F /  3.7 °C 37.4 °F /  3 °C 30in /  1015.2hPa West 12.1mph /  19.5km/h 16mph /  25.7km/h 95% 0in /  0.0mm 39 W/m2
09:27 38.8 °F /  3.8 °C 37.6 °F /  3.1 °C 30in /  1015.2hPa West 8.1mph /  13km/h 11mph /  17.7km/h 95% 0in /  0.0mm 40 W/m2
09:32 38.8 °F /  3.8 °C 37.6 °F /  3.1 °C 30in /  1015.2hPa West 11mph /  17.7km/h 11mph /  17.7km/h 95% 0in /  0.0mm 49 W/m2
09:37 39 °F /  3.9 °C 37.8 °F /  3.2 °C 30in /  1015.2hPa West 8.1mph /  13km/h 11mph /  17.7km/h 95% 0in /  0.0mm 47 W/m2
09:42 39 °F /  3.9 °C 37.8 °F /  3.2 °C 30in /  1015.2hPa West 6mph /  9.7km/h 14mph /  22.5km/h 95% 0in /  0.0mm 74 W/m2
Juneau County Weather
Compliments of Weather Underground - 2 mb